createdAt,value
2023-03-20T00:04:48.875Z,7.60
2023-03-20T00:09:52.124Z,7.40
2023-03-20T00:14:57.508Z,7.50
2023-03-20T00:20:01.391Z,7.30
2023-03-20T00:25:06.035Z,7.10
2023-03-20T00:30:21.130Z,7.00
2023-03-20T00:35:28.093Z,6.80
2023-03-20T00:40:32.066Z,6.80
2023-03-20T00:45:37.084Z,6.80
2023-03-20T00:50:40.863Z,6.60
2023-03-20T00:55:44.365Z,6.60
2023-03-20T01:00:50.812Z,6.50
2023-03-20T01:05:54.266Z,6.50
2023-03-20T01:10:58.871Z,6.30
2023-03-20T01:16:03.635Z,6.20
2023-03-20T01:21:08.981Z,6.10
2023-03-20T01:26:22.619Z,6.20
2023-03-20T01:31:27.399Z,6.40
2023-03-20T01:36:30.778Z,6.60
2023-03-20T01:41:34.239Z,6.80
2023-03-20T01:46:40.592Z,6.90
2023-03-20T01:51:53.175Z,7.00
2023-03-20T01:57:02.465Z,7.00
2023-03-20T02:02:08.447Z,7.00
2023-03-20T02:07:16.365Z,6.90
2023-03-20T02:12:25.608Z,6.70
2023-03-20T02:17:30.449Z,6.60
2023-03-20T02:23:15.577Z,6.40
2023-03-20T02:28:58.599Z,6.20
2023-03-20T02:34:29.771Z,6.30
2023-03-20T02:39:58.195Z,6.40
2023-03-20T02:45:11.620Z,6.70
2023-03-20T02:50:21.343Z,6.80
2023-03-20T02:55:34.002Z,7.00
2023-03-20T03:00:47.489Z,7.10
2023-03-20T03:05:57.939Z,6.90
2023-03-20T03:11:06.240Z,7.20
2023-03-20T03:16:13.541Z,7.30
2023-03-20T03:21:20.241Z,7.30
2023-03-20T03:26:30.484Z,7.40
2023-03-20T03:31:34.798Z,7.40
2023-03-20T03:36:48.091Z,7.50
2023-03-20T03:41:57.457Z,7.40
2023-03-20T03:47:08.051Z,7.30
2023-03-20T03:52:16.882Z,7.30
2023-03-20T03:57:25.724Z,7.20
2023-03-20T04:02:29.536Z,7.30
2023-03-20T04:07:34.003Z,7.30
2023-03-20T04:12:40.739Z,7.30
2023-03-20T04:17:46.533Z,7.30
2023-03-20T04:22:51.373Z,7.30
2023-03-20T04:27:56.648Z,7.30
2023-03-20T04:33:20.162Z,7.40
2023-03-20T04:38:37.230Z,7.30
2023-03-20T04:43:42.375Z,7.40
2023-03-20T04:48:45.884Z,7.40
2023-03-20T04:53:51.004Z,7.40
2023-03-20T04:58:56.254Z,7.40
2023-03-20T05:04:01.847Z,7.40
2023-03-20T05:09:09.366Z,7.40
2023-03-20T05:14:15.406Z,7.40
2023-03-20T05:19:32.486Z,7.40
2023-03-20T05:24:54.560Z,7.40
2023-03-20T05:30:14.340Z,7.40
2023-03-20T05:35:47.341Z,7.40
2023-03-20T05:41:00.170Z,7.50
2023-03-20T05:46:22.754Z,7.50
2023-03-20T05:51:45.003Z,7.60
2023-03-20T05:57:00.335Z,7.70
2023-03-20T06:02:14.392Z,8.10
2023-03-20T06:07:25.064Z,8.50
2023-03-20T06:12:42.298Z,8.80
2023-03-20T06:17:47.368Z,9.00
2023-03-20T06:22:51.864Z,9.20
2023-03-20T06:27:55.542Z,9.10
2023-03-20T06:33:01.818Z,9.10
2023-03-20T06:38:25.117Z,9.10
2023-03-20T06:43:29.593Z,9.10
2023-03-20T06:48:34.524Z,9.20
2023-03-20T06:53:44.126Z,9.10
2023-03-20T06:58:53.674Z,9.20
2023-03-20T07:03:59.217Z,9.20
2023-03-20T07:09:08.337Z,9.20
2023-03-20T07:14:14.488Z,9.20
2023-03-20T07:19:42.312Z,9.30
2023-03-20T07:24:47.312Z,9.20
2023-03-20T07:29:52.329Z,9.20
2023-03-20T07:34:57.453Z,9.50
2023-03-20T07:40:01.863Z,9.70
2023-03-20T07:45:11.379Z,9.80
2023-03-20T07:50:16.825Z,9.90
2023-03-20T07:55:20.506Z,10.00
2023-03-20T08:00:25.230Z,10.10
2023-03-20T08:05:32.124Z,10.00
2023-03-20T08:10:35.916Z,10.30
2023-03-20T08:15:40.025Z,10.30
2023-03-20T08:20:44.842Z,10.30
2023-03-20T08:25:49.420Z,10.40
2023-03-20T08:30:53.096Z,10.70
2023-03-20T08:35:59.079Z,11.00
2023-03-20T08:41:02.451Z,12.30
2023-03-20T08:46:06.348Z,13.70
2023-03-20T08:51:11.432Z,14.10
2023-03-20T08:56:14.671Z,13.80
2023-03-20T09:01:18.130Z,14.10
2023-03-20T09:06:22.955Z,14.80
2023-03-20T09:11:26.475Z,15.40
2023-03-20T09:16:29.926Z,15.10
2023-03-20T09:21:34.763Z,14.80
2023-03-20T09:26:38.256Z,14.20
2023-03-20T09:31:41.551Z,14.10
2023-03-20T09:36:46.263Z,13.60
2023-03-20T09:41:57.167Z,13.20
2023-03-20T09:47:19.702Z,13.00
2023-03-20T09:52:30.961Z,13.10
2023-03-20T09:57:39.377Z,13.10
2023-03-20T10:02:50.189Z,12.80
2023-03-20T10:07:58.086Z,13.00
2023-03-20T10:13:12.771Z,13.00
2023-03-20T10:18:22.875Z,12.70
2023-03-20T10:23:34.809Z,13.30
2023-03-20T10:28:43.300Z,13.90
2023-03-20T10:33:57.348Z,14.30
2023-03-20T10:39:09.916Z,14.10
2023-03-20T10:44:19.288Z,14.00
2023-03-20T10:49:29.985Z,13.70
2023-03-20T10:54:38.286Z,13.90
2023-03-20T10:59:45.326Z,13.60
2023-03-20T11:04:48.717Z,13.40
2023-03-20T11:10:12.261Z,13.30
2023-03-20T11:15:23.007Z,13.20
2023-03-20T11:20:31.528Z,12.90
2023-03-20T11:25:39.442Z,12.80
2023-03-20T11:31:01.375Z,13.20
2023-03-20T11:36:21.957Z,13.00
2023-03-20T11:41:28.299Z,12.80
2023-03-20T11:46:31.896Z,12.60
2023-03-20T11:51:38.086Z,12.40
2023-03-20T11:56:52.662Z,12.30
2023-03-20T12:01:57.564Z,12.60
2023-03-20T12:07:05.358Z,12.50
2023-03-20T12:12:17.507Z,12.50
2023-03-20T12:17:42.876Z,12.50
2023-03-20T12:22:53.169Z,12.60
2023-03-20T12:28:03.926Z,12.80
2023-03-20T12:33:12.176Z,13.00
2023-03-20T12:38:24.830Z,12.90
2023-03-20T12:43:36.139Z,12.60
2023-03-20T12:48:55.820Z,13.10
2023-03-20T12:54:15.647Z,13.10
2023-03-20T12:59:27.629Z,13.00
2023-03-20T13:04:45.111Z,13.20
2023-03-20T13:10:06.489Z,13.60
2023-03-20T13:15:26.405Z,13.60
2023-03-20T13:20:32.279Z,14.20
2023-03-20T13:25:53.874Z,14.40
2023-03-20T13:31:06.563Z,14.40
2023-03-20T13:36:24.345Z,14.10
2023-03-20T13:41:28.660Z,13.60
2023-03-20T13:46:38.061Z,13.30
2023-03-20T13:51:48.540Z,13.10
2023-03-20T13:56:57.497Z,12.80
2023-03-20T14:02:12.814Z,12.50
2023-03-20T14:07:38.148Z,12.30
2023-03-20T14:12:41.637Z,12.20
2023-03-20T14:17:48.279Z,12.20
2023-03-20T14:22:52.005Z,12.20
2023-03-20T14:27:57.563Z,12.20
2023-03-20T14:33:06.792Z,12.20
2023-03-20T14:38:20.680Z,12.30
2023-03-20T14:43:40.582Z,12.20
2023-03-20T14:48:50.646Z,12.20
2023-03-20T14:53:57.474Z,12.30
2023-03-20T14:59:04.061Z,12.30
2023-03-20T15:04:13.654Z,11.90
2023-03-20T15:09:19.970Z,11.90
2023-03-20T15:14:27.388Z,11.90
2023-03-20T15:19:33.647Z,11.90
2023-03-20T15:24:36.946Z,11.90
2023-03-20T15:29:45.906Z,11.80
2023-03-20T15:34:51.283Z,11.90
2023-03-20T15:40:00.285Z,11.80
2023-03-20T15:45:21.510Z,12.00
2023-03-20T15:50:27.121Z,12.00
2023-03-20T15:55:30.810Z,12.10
2023-03-20T16:00:39.902Z,12.20
2023-03-20T16:05:46.659Z,12.20
2023-03-20T16:10:54.368Z,12.20
2023-03-20T16:15:58.242Z,12.10
2023-03-20T16:21:07.355Z,11.80
2023-03-20T16:26:16.509Z,11.50
2023-03-20T16:31:26.162Z,11.30
2023-03-20T16:36:32.666Z,11.20
2023-03-20T16:41:37.922Z,11.10
2023-03-20T16:46:56.984Z,11.00
2023-03-20T16:52:04.814Z,10.80
2023-03-20T16:57:10.639Z,10.60
2023-03-20T17:02:25.278Z,10.30
2023-03-20T17:07:31.500Z,10.20
2023-03-20T17:12:37.015Z,10.20
2023-03-20T17:17:41.031Z,9.90
2023-03-20T17:22:46.416Z,9.80
2023-03-20T17:27:49.906Z,9.70
2023-03-20T17:32:53.699Z,9.60
2023-03-20T17:37:59.472Z,9.60
2023-03-20T17:43:02.811Z,9.70
2023-03-20T17:48:06.862Z,9.60
2023-03-20T17:53:16.808Z,9.90
2023-03-20T17:58:22.764Z,9.90
2023-03-20T18:03:26.310Z,9.80
2023-03-20T18:08:31.171Z,9.60
2023-03-20T18:13:34.801Z,9.50
2023-03-20T18:18:38.158Z,9.30
2023-03-20T18:23:42.987Z,9.10
2023-03-20T18:28:46.982Z,9.00
2023-03-20T18:33:51.876Z,8.90
2023-03-20T18:38:57.242Z,8.80
2023-03-20T18:44:00.761Z,8.80
2023-03-20T18:49:04.332Z,8.70
2023-03-20T18:54:09.212Z,8.60
2023-03-20T18:59:13.701Z,8.60
2023-03-20T19:04:18.055Z,8.50
2023-03-20T19:09:23.225Z,8.50
2023-03-20T19:14:27.137Z,8.50
2023-03-20T19:19:30.920Z,8.50
2023-03-20T19:24:35.989Z,8.50
2023-03-20T19:29:40.290Z,8.50
2023-03-20T19:40:22.326Z,8.40
2023-03-20T19:45:27.831Z,8.50
2023-03-20T19:50:36.185Z,8.50
2023-03-20T19:55:41.291Z,8.50
2023-03-20T20:01:01.001Z,8.40
2023-03-20T20:06:04.960Z,8.40
2023-03-20T20:11:12.952Z,8.40
2023-03-20T20:16:16.402Z,8.40
2023-03-20T20:22:09.740Z,8.40
2023-03-20T20:26:54.398Z,8.30
2023-03-20T20:31:59.880Z,8.30
2023-03-20T20:42:27.866Z,8.30
2023-03-20T20:47:31.961Z,8.30
2023-03-20T20:52:37.010Z,8.20
2023-03-20T20:57:41.941Z,8.20
2023-03-20T21:02:45.468Z,8.20
2023-03-20T21:07:50.289Z,8.20
2023-03-20T21:12:59.461Z,8.20
2023-03-20T21:18:04.280Z,8.10
2023-03-20T21:23:07.718Z,8.10
2023-03-20T21:28:13.384Z,8.20
2023-03-20T21:33:16.785Z,8.10
2023-03-20T21:43:47.331Z,8.10
2023-03-20T21:55:00.778Z,8.10
2023-03-20T22:00:15.036Z,8.10
2023-03-20T22:05:50.091Z,8.00
2023-03-20T22:21:55.846Z,8.00
2023-03-20T22:27:26.952Z,8.00
2023-03-20T22:32:48.608Z,8.00
2023-03-20T22:43:15.502Z,7.90
2023-03-20T22:48:15.554Z,7.90
2023-03-20T22:53:19.232Z,7.90
2023-03-20T22:58:22.583Z,8.00
2023-03-20T23:03:40.965Z,8.00
2023-03-20T23:08:50.828Z,8.00
2023-03-20T23:13:58.020Z,7.90
2023-03-20T23:19:02.745Z,7.90
2023-03-20T23:24:06.707Z,8.00
2023-03-20T23:29:10.276Z,7.90
2023-03-20T23:34:17.775Z,7.90
2023-03-20T23:39:21.297Z,7.90
2023-03-20T23:44:25.393Z,7.90
2023-03-20T23:49:30.387Z,7.90
2023-03-20T23:54:33.741Z,7.90
2023-03-20T23:59:37.377Z,8.00
